sensor_id;sensor_type;location;lat;lon;timestamp;temperature;humidity
1700;DHT22;847;48.058;7.810;2023-08-07T00:01:33;14.80;97.80
1700;DHT22;847;48.058;7.810;2023-08-07T00:04:00;14.80;98.00
1700;DHT22;847;48.058;7.810;2023-08-07T00:06:28;14.80;97.70
1700;DHT22;847;48.058;7.810;2023-08-07T00:08:55;14.80;97.70
1700;DHT22;847;48.058;7.810;2023-08-07T00:11:22;14.80;97.80
1700;DHT22;847;48.058;7.810;2023-08-07T00:13:48;14.70;97.40
1700;DHT22;847;48.058;7.810;2023-08-07T00:16:15;14.70;97.00
1700;DHT22;847;48.058;7.810;2023-08-07T00:18:42;14.80;97.30
1700;DHT22;847;48.058;7.810;2023-08-07T00:21:09;14.80;97.00
1700;DHT22;847;48.058;7.810;2023-08-07T00:23:37;14.80;96.60
1700;DHT22;847;48.058;7.810;2023-08-07T00:26:04;14.80;96.80
1700;DHT22;847;48.058;7.810;2023-08-07T00:28:30;14.70;97.70
1700;DHT22;847;48.058;7.810;2023-08-07T00:30:57;14.70;97.70
1700;DHT22;847;48.058;7.810;2023-08-07T00:33:24;14.60;97.00
1700;DHT22;847;48.058;7.810;2023-08-07T00:35:51;14.70;97.00
1700;DHT22;847;48.058;7.810;2023-08-07T00:38:17;14.60;97.00
1700;DHT22;847;48.058;7.810;2023-08-07T00:40:45;14.60;97.10
1700;DHT22;847;48.058;7.810;2023-08-07T00:43:12;14.70;97.10
1700;DHT22;847;48.058;7.810;2023-08-07T00:45:42;14.70;97.00
1700;DHT22;847;48.058;7.810;2023-08-07T00:48:10;14.60;98.00
1700;DHT22;847;48.058;7.810;2023-08-07T00:50:38;14.60;97.70
1700;DHT22;847;48.058;7.810;2023-08-07T00:53:06;14.60;98.40
1700;DHT22;847;48.058;7.810;2023-08-07T00:55:33;14.60;97.60
1700;DHT22;847;48.058;7.810;2023-08-07T00:58:01;14.60;97.10
1700;DHT22;847;48.058;7.810;2023-08-07T01:00:29;14.60;97.40
1700;DHT22;847;48.058;7.810;2023-08-07T01:02:56;14.60;97.60
1700;DHT22;847;48.058;7.810;2023-08-07T01:05:24;14.70;97.90
1700;DHT22;847;48.058;7.810;2023-08-07T01:07:53;14.60;98.40
1700;DHT22;847;48.058;7.810;2023-08-07T01:10:23;14.50;98.50
1700;DHT22;847;48.058;7.810;2023-08-07T01:12:56;14.50;98.60
1700;DHT22;847;48.058;7.810;2023-08-07T01:15:30;14.50;98.40
1700;DHT22;847;48.058;7.810;2023-08-07T01:17:58;14.60;98.40
1700;DHT22;847;48.058;7.810;2023-08-07T01:20:25;14.60;98.20
1700;DHT22;847;48.058;7.810;2023-08-07T01:22:53;14.60;97.70
1700;DHT22;847;48.058;7.810;2023-08-07T01:25:20;14.70;97.90
1700;DHT22;847;48.058;7.810;2023-08-07T01:27:54;14.60;97.40
1700;DHT22;847;48.058;7.810;2023-08-07T01:30:28;14.60;97.80
1700;DHT22;847;48.058;7.810;2023-08-07T01:32:59;14.60;98.10
1700;DHT22;847;48.058;7.810;2023-08-07T01:35:34;14.60;98.60
1700;DHT22;847;48.058;7.810;2023-08-07T01:38:03;14.60;99.00
1700;DHT22;847;48.058;7.810;2023-08-07T01:40:31;14.60;99.00
1700;DHT22;847;48.058;7.810;2023-08-07T01:42:58;14.60;99.00
1700;DHT22;847;48.058;7.810;2023-08-07T01:45:26;14.50;98.90
1700;DHT22;847;48.058;7.810;2023-08-07T01:47:53;14.60;99.00
1700;DHT22;847;48.058;7.810;2023-08-07T01:50:20;14.50;98.90
1700;DHT22;847;48.058;7.810;2023-08-07T01:52:47;14.50;99.00
1700;DHT22;847;48.058;7.810;2023-08-07T01:55:15;14.60;99.00
1700;DHT22;847;48.058;7.810;2023-08-07T01:57:42;14.60;99.00
1700;DHT22;847;48.058;7.810;2023-08-07T02:00:10;14.50;99.00
1700;DHT22;847;48.058;7.810;2023-08-07T02:02:38;14.50;99.00
1700;DHT22;847;48.058;7.810;2023-08-07T02:05:05;14.50;99.00
1700;DHT22;847;48.058;7.810;2023-08-07T02:07:32;14.50;99.00
1700;DHT22;847;48.058;7.810;2023-08-07T02:09:59;14.40;99.00
1700;DHT22;847;48.058;7.810;2023-08-07T02:12:27;14.30;99.00
1700;DHT22;847;48.058;7.810;2023-08-07T02:14:55;14.30;99.00
1700;DHT22;847;48.058;7.810;2023-08-07T02:17:22;14.30;99.00
1700;DHT22;847;48.058;7.810;2023-08-07T02:19:48;14.20;99.00
1700;DHT22;847;48.058;7.810;2023-08-07T02:22:15;14.20;99.00
1700;DHT22;847;48.058;7.810;2023-08-07T02:24:42;14.10;99.00
1700;DHT22;847;48.058;7.810;2023-08-07T02:27:08;14.00;99.00
1700;DHT22;847;48.058;7.810;2023-08-07T02:29:37;14.10;99.00
1700;DHT22;847;48.058;7.810;2023-08-07T02:32:04;14.10;99.00
1700;DHT22;847;48.058;7.810;2023-08-07T02:34:31;14.10;99.00
1700;DHT22;847;48.058;7.810;2023-08-07T02:36:58;14.10;99.00
1700;DHT22;847;48.058;7.810;2023-08-07T02:39:25;14.00;99.00
1700;DHT22;847;48.058;7.810;2023-08-07T02:41:52;14.00;99.00
1700;DHT22;847;48.058;7.810;2023-08-07T02:44:19;14.10;99.00
1700;DHT22;847;48.058;7.810;2023-08-07T02:46:47;14.00;99.00
1700;DHT22;847;48.058;7.810;2023-08-07T02:49:14;14.00;99.00
1700;DHT22;847;48.058;7.810;2023-08-07T02:51:41;14.00;99.00
1700;DHT22;847;48.058;7.810;2023-08-07T02:54:07;14.00;99.00
1700;DHT22;847;48.058;7.810;2023-08-07T02:56:34;14.00;99.00
1700;DHT22;847;48.058;7.810;2023-08-07T02:59:01;14.00;99.00
1700;DHT22;847;48.058;7.810;2023-08-07T03:01:28;14.10;99.00
1700;DHT22;847;48.058;7.810;2023-08-07T03:03:56;14.10;99.00
1700;DHT22;847;48.058;7.810;2023-08-07T03:06:23;14.10;99.00
1700;DHT22;847;48.058;7.810;2023-08-07T03:08:50;14.10;99.00
1700;DHT22;847;48.058;7.810;2023-08-07T03:11:16;14.10;99.00
1700;DHT22;847;48.058;7.810;2023-08-07T03:13:43;14.10;99.00
1700;DHT22;847;48.058;7.810;2023-08-07T03:16:10;14.10;99.00
1700;DHT22;847;48.058;7.810;2023-08-07T03:18:37;14.10;99.00
1700;DHT22;847;48.058;7.810;2023-08-07T03:21:05;14.10;99.00
1700;DHT22;847;48.058;7.810;2023-08-07T03:23:32;14.10;99.00
1700;DHT22;847;48.058;7.810;2023-08-07T03:26:03;14.10;99.00
1700;DHT22;847;48.058;7.810;2023-08-07T03:28:30;14.10;99.00
1700;DHT22;847;48.058;7.810;2023-08-07T03:30:56;14.10;99.00
1700;DHT22;847;48.058;7.810;2023-08-07T03:33:23;14.10;99.00
1700;DHT22;847;48.058;7.810;2023-08-07T03:35:50;14.10;99.00
1700;DHT22;847;48.058;7.810;2023-08-07T03:38:18;14.20;99.00
1700;DHT22;847;48.058;7.810;2023-08-07T03:40:45;14.20;99.00
1700;DHT22;847;48.058;7.810;2023-08-07T03:43:12;14.20;99.00
1700;DHT22;847;48.058;7.810;2023-08-07T03:45:39;14.20;99.00
1700;DHT22;847;48.058;7.810;2023-08-07T03:48:06;14.20;99.00
1700;DHT22;847;48.058;7.810;2023-08-07T03:50:33;14.30;99.00
1700;DHT22;847;48.058;7.810;2023-08-07T03:53:02;14.30;99.00
1700;DHT22;847;48.058;7.810;2023-08-07T03:55:31;14.30;99.00
1700;DHT22;847;48.058;7.810;2023-08-07T03:57:58;14.30;99.00
1700;DHT22;847;48.058;7.810;2023-08-07T04:00:24;14.30;99.00
1700;DHT22;847;48.058;7.810;2023-08-07T04:02:51;14.30;99.00
1700;DHT22;847;48.058;7.810;2023-08-07T04:05:18;14.30;99.00
1700;DHT22;847;48.058;7.810;2023-08-07T04:07:45;14.30;99.00
1700;DHT22;847;48.058;7.810;2023-08-07T04:10:12;14.30;99.00
1700;DHT22;847;48.058;7.810;2023-08-07T04:12:40;14.40;99.00
1700;DHT22;847;48.058;7.810;2023-08-07T04:15:07;14.40;99.00
1700;DHT22;847;48.058;7.810;2023-08-07T04:17:35;14.40;99.00
1700;DHT22;847;48.058;7.810;2023-08-07T04:20:03;14.40;99.00
1700;DHT22;847;48.058;7.810;2023-08-07T04:22:30;14.40;99.00
1700;DHT22;847;48.058;7.810;2023-08-07T04:24:57;14.40;99.00
1700;DHT22;847;48.058;7.810;2023-08-07T04:27:25;14.40;99.00
1700;DHT22;847;48.058;7.810;2023-08-07T04:29:53;14.40;99.00
1700;DHT22;847;48.058;7.810;2023-08-07T04:32:20;14.40;99.00
1700;DHT22;847;48.058;7.810;2023-08-07T04:34:47;14.30;99.00
1700;DHT22;847;48.058;7.810;2023-08-07T04:37:13;14.30;99.00
1700;DHT22;847;48.058;7.810;2023-08-07T04:39:40;14.30;99.00
1700;DHT22;847;48.058;7.810;2023-08-07T04:42:07;14.40;99.00
1700;DHT22;847;48.058;7.810;2023-08-07T04:44:34;14.40;99.00
1700;DHT22;847;48.058;7.810;2023-08-07T04:47:02;14.40;99.00
1700;DHT22;847;48.058;7.810;2023-08-07T04:49:29;14.40;99.00
1700;DHT22;847;48.058;7.810;2023-08-07T04:51:55;14.40;99.00
1700;DHT22;847;48.058;7.810;2023-08-07T04:54:22;14.40;99.00
1700;DHT22;847;48.058;7.810;2023-08-07T04:56:49;14.40;99.00
1700;DHT22;847;48.058;7.810;2023-08-07T04:59:15;14.40;99.00
1700;DHT22;847;48.058;7.810;2023-08-07T05:01:42;14.40;99.00
1700;DHT22;847;48.058;7.810;2023-08-07T05:04:10;14.40;99.00
1700;DHT22;847;48.058;7.810;2023-08-07T05:06:37;14.40;99.00
1700;DHT22;847;48.058;7.810;2023-08-07T05:09:04;14.30;99.00
1700;DHT22;847;48.058;7.810;2023-08-07T05:11:32;14.30;99.00
1700;DHT22;847;48.058;7.810;2023-08-07T05:13:59;14.30;99.00
1700;DHT22;847;48.058;7.810;2023-08-07T05:16:25;14.30;99.00
1700;DHT22;847;48.058;7.810;2023-08-07T05:18:52;14.30;99.00
1700;DHT22;847;48.058;7.810;2023-08-07T05:21:21;14.40;99.00
1700;DHT22;847;48.058;7.810;2023-08-07T05:23:47;14.40;99.00
1700;DHT22;847;48.058;7.810;2023-08-07T05:26:20;14.40;99.00
1700;DHT22;847;48.058;7.810;2023-08-07T05:28:47;14.30;99.00
1700;DHT22;847;48.058;7.810;2023-08-07T05:31:14;14.30;99.00
1700;DHT22;847;48.058;7.810;2023-08-07T05:33:40;14.30;99.00
1700;DHT22;847;48.058;7.810;2023-08-07T05:36:07;14.30;99.00
1700;DHT22;847;48.058;7.810;2023-08-07T05:38:35;14.30;99.00
1700;DHT22;847;48.058;7.810;2023-08-07T05:41:02;14.30;99.00
1700;DHT22;847;48.058;7.810;2023-08-07T05:43:29;14.30;99.00
1700;DHT22;847;48.058;7.810;2023-08-07T05:45:56;14.30;99.00
1700;DHT22;847;48.058;7.810;2023-08-07T05:48:23;14.30;99.00
1700;DHT22;847;48.058;7.810;2023-08-07T05:50:51;14.20;99.00
1700;DHT22;847;48.058;7.810;2023-08-07T05:53:18;14.20;99.00
1700;DHT22;847;48.058;7.810;2023-08-07T05:55:46;14.30;99.00
1700;DHT22;847;48.058;7.810;2023-08-07T05:58:12;14.30;99.00
1700;DHT22;847;48.058;7.810;2023-08-07T06:00:39;14.30;99.00
1700;DHT22;847;48.058;7.810;2023-08-07T06:03:06;14.30;99.00
1700;DHT22;847;48.058;7.810;2023-08-07T06:05:33;14.30;99.00
1700;DHT22;847;48.058;7.810;2023-08-07T06:08:01;14.20;99.00
1700;DHT22;847;48.058;7.810;2023-08-07T06:10:27;14.30;99.00
1700;DHT22;847;48.058;7.810;2023-08-07T06:12:56;14.30;99.00
1700;DHT22;847;48.058;7.810;2023-08-07T06:15:22;14.40;99.00
1700;DHT22;847;48.058;7.810;2023-08-07T06:17:49;14.40;99.00
1700;DHT22;847;48.058;7.810;2023-08-07T06:20:17;14.40;99.00
1700;DHT22;847;48.058;7.810;2023-08-07T06:22:44;14.40;99.00
1700;DHT22;847;48.058;7.810;2023-08-07T06:25:11;14.40;99.00
1700;DHT22;847;48.058;7.810;2023-08-07T06:27:37;14.40;99.00
1700;DHT22;847;48.058;7.810;2023-08-07T06:30:06;14.50;99.00
1700;DHT22;847;48.058;7.810;2023-08-07T06:32:33;14.50;99.00
1700;DHT22;847;48.058;7.810;2023-08-07T06:35:02;14.60;99.00
1700;DHT22;847;48.058;7.810;2023-08-07T06:37:29;14.60;99.00
1700;DHT22;847;48.058;7.810;2023-08-07T06:39:56;14.60;99.00
1700;DHT22;847;48.058;7.810;2023-08-07T06:42:23;14.60;99.00
1700;DHT22;847;48.058;7.810;2023-08-07T06:44:50;14.60;99.00
1700;DHT22;847;48.058;7.810;2023-08-07T06:47:18;14.60;99.00
1700;DHT22;847;48.058;7.810;2023-08-07T06:49:45;14.60;99.00
1700;DHT22;847;48.058;7.810;2023-08-07T06:52:11;14.60;99.00
1700;DHT22;847;48.058;7.810;2023-08-07T06:54:38;14.60;99.00
1700;DHT22;847;48.058;7.810;2023-08-07T06:57:05;14.60;99.00
1700;DHT22;847;48.058;7.810;2023-08-07T06:59:32;14.60;99.00
1700;DHT22;847;48.058;7.810;2023-08-07T07:01:59;14.60;99.00
1700;DHT22;847;48.058;7.810;2023-08-07T07:04:27;14.60;99.00
1700;DHT22;847;48.058;7.810;2023-08-07T07:06:54;14.60;99.00
1700;DHT22;847;48.058;7.810;2023-08-07T07:09:21;14.60;99.00
1700;DHT22;847;48.058;7.810;2023-08-07T07:11:48;14.60;99.00
1700;DHT22;847;48.058;7.810;2023-08-07T07:14:14;14.70;99.00
1700;DHT22;847;48.058;7.810;2023-08-07T07:16:41;14.80;99.00
1700;DHT22;847;48.058;7.810;2023-08-07T07:19:08;14.80;99.00
1700;DHT22;847;48.058;7.810;2023-08-07T07:21:37;14.80;99.00
1700;DHT22;847;48.058;7.810;2023-08-07T07:24:04;14.80;99.00
1700;DHT22;847;48.058;7.810;2023-08-07T07:26:31;14.80;99.00
1700;DHT22;847;48.058;7.810;2023-08-07T07:28:58;14.80;99.00
1700;DHT22;847;48.058;7.810;2023-08-07T07:31:25;14.80;99.00
1700;DHT22;847;48.058;7.810;2023-08-07T07:33:51;14.80;99.00
1700;DHT22;847;48.058;7.810;2023-08-07T07:36:19;14.90;99.00
1700;DHT22;847;48.058;7.810;2023-08-07T07:38:47;14.90;99.00
1700;DHT22;847;48.058;7.810;2023-08-07T07:41:14;14.90;99.00
1700;DHT22;847;48.058;7.810;2023-08-07T07:43:41;14.90;99.00
1700;DHT22;847;48.058;7.810;2023-08-07T07:46:08;14.90;99.00
1700;DHT22;847;48.058;7.810;2023-08-07T07:48:35;15.00;99.00
1700;DHT22;847;48.058;7.810;2023-08-07T07:51:02;15.00;99.00
1700;DHT22;847;48.058;7.810;2023-08-07T07:53:29;15.10;99.00
1700;DHT22;847;48.058;7.810;2023-08-07T07:55:58;15.00;99.00
1700;DHT22;847;48.058;7.810;2023-08-07T07:58:24;15.00;99.00
1700;DHT22;847;48.058;7.810;2023-08-07T08:00:51;15.00;99.00
1700;DHT22;847;48.058;7.810;2023-08-07T08:03:20;15.00;99.00
1700;DHT22;847;48.058;7.810;2023-08-07T08:05:49;15.00;99.00
1700;DHT22;847;48.058;7.810;2023-08-07T08:08:16;15.10;99.00
1700;DHT22;847;48.058;7.810;2023-08-07T08:10:43;15.10;99.00
1700;DHT22;847;48.058;7.810;2023-08-07T08:13:11;15.10;99.00
1700;DHT22;847;48.058;7.810;2023-08-07T08:15:38;15.20;99.00
1700;DHT22;847;48.058;7.810;2023-08-07T08:18:05;15.20;99.00
1700;DHT22;847;48.058;7.810;2023-08-07T08:20:31;15.10;99.00
1700;DHT22;847;48.058;7.810;2023-08-07T08:22:58;15.10;99.00
1700;DHT22;847;48.058;7.810;2023-08-07T08:25:25;15.10;99.00
1700;DHT22;847;48.058;7.810;2023-08-07T08:27:52;15.10;99.00
1700;DHT22;847;48.058;7.810;2023-08-07T08:30:21;15.10;99.00
1700;DHT22;847;48.058;7.810;2023-08-07T08:32:48;15.10;99.00
1700;DHT22;847;48.058;7.810;2023-08-07T08:35:14;15.10;99.00
1700;DHT22;847;48.058;7.810;2023-08-07T08:37:41;15.20;99.00
1700;DHT22;847;48.058;7.810;2023-08-07T08:40:09;15.20;99.00
1700;DHT22;847;48.058;7.810;2023-08-07T08:42:39;15.20;99.00
1700;DHT22;847;48.058;7.810;2023-08-07T08:45:09;15.20;99.00
1700;DHT22;847;48.058;7.810;2023-08-07T08:47:39;15.20;99.00
1700;DHT22;847;48.058;7.810;2023-08-07T08:50:08;15.20;99.00
1700;DHT22;847;48.058;7.810;2023-08-07T08:52:36;15.30;99.00
1700;DHT22;847;48.058;7.810;2023-08-07T08:55:04;15.30;99.00
1700;DHT22;847;48.058;7.810;2023-08-07T08:57:32;15.30;99.00
1700;DHT22;847;48.058;7.810;2023-08-07T09:00:00;15.40;99.00
1700;DHT22;847;48.058;7.810;2023-08-07T09:02:32;15.40;99.00
1700;DHT22;847;48.058;7.810;2023-08-07T09:05:00;15.50;99.00
1700;DHT22;847;48.058;7.810;2023-08-07T09:07:28;15.50;99.00
1700;DHT22;847;48.058;7.810;2023-08-07T09:09:56;15.60;99.00
1700;DHT22;847;48.058;7.810;2023-08-07T09:12:26;15.60;99.00
1700;DHT22;847;48.058;7.810;2023-08-07T09:14:57;15.70;99.00
1700;DHT22;847;48.058;7.810;2023-08-07T09:17:26;15.80;99.00
1700;DHT22;847;48.058;7.810;2023-08-07T09:19:53;15.90;99.00
1700;DHT22;847;48.058;7.810;2023-08-07T09:22:21;16.00;99.00
1700;DHT22;847;48.058;7.810;2023-08-07T09:24:48;16.10;99.00
1700;DHT22;847;48.058;7.810;2023-08-07T09:27:15;16.20;99.00
1700;DHT22;847;48.058;7.810;2023-08-07T09:29:43;16.30;99.00
1700;DHT22;847;48.058;7.810;2023-08-07T09:32:12;16.40;99.00
1700;DHT22;847;48.058;7.810;2023-08-07T09:34:39;16.50;99.00
1700;DHT22;847;48.058;7.810;2023-08-07T09:37:07;16.50;98.00
1700;DHT22;847;48.058;7.810;2023-08-07T09:39:35;16.40;95.60
1700;DHT22;847;48.058;7.810;2023-08-07T09:42:02;16.40;97.50
1700;DHT22;847;48.058;7.810;2023-08-07T09:44:35;16.40;97.50
1700;DHT22;847;48.058;7.810;2023-08-07T09:47:11;16.40;94.70
1700;DHT22;847;48.058;7.810;2023-08-07T09:49:39;16.50;96.50
1700;DHT22;847;48.058;7.810;2023-08-07T09:52:07;16.60;96.10
1700;DHT22;847;48.058;7.810;2023-08-07T09:54:36;16.60;96.80
1700;DHT22;847;48.058;7.810;2023-08-07T09:57:04;16.60;96.00
1700;DHT22;847;48.058;7.810;2023-08-07T09:59:32;16.50;94.80
1700;DHT22;847;48.058;7.810;2023-08-07T10:02:00;16.40;94.50
1700;DHT22;847;48.058;7.810;2023-08-07T10:04:27;16.40;94.60
1700;DHT22;847;48.058;7.810;2023-08-07T10:06:54;16.40;95.60
1700;DHT22;847;48.058;7.810;2023-08-07T10:09:21;16.40;95.70
1700;DHT22;847;48.058;7.810;2023-08-07T10:11:50;16.40;96.40
1700;DHT22;847;48.058;7.810;2023-08-07T10:14:18;16.40;96.60
1700;DHT22;847;48.058;7.810;2023-08-07T10:16:45;16.30;95.70
1700;DHT22;847;48.058;7.810;2023-08-07T10:19:12;16.40;96.70
1700;DHT22;847;48.058;7.810;2023-08-07T10:21:40;16.40;97.80
1700;DHT22;847;48.058;7.810;2023-08-07T10:24:08;16.50;98.40
1700;DHT22;847;48.058;7.810;2023-08-07T10:26:37;16.60;98.60
1700;DHT22;847;48.058;7.810;2023-08-07T10:29:10;16.60;96.70
1700;DHT22;847;48.058;7.810;2023-08-07T10:31:38;16.70;95.70
1700;DHT22;847;48.058;7.810;2023-08-07T10:34:07;16.70;94.80
1700;DHT22;847;48.058;7.810;2023-08-07T10:36:36;16.70;94.80
1700;DHT22;847;48.058;7.810;2023-08-07T10:39:07;16.80;96.00
1700;DHT22;847;48.058;7.810;2023-08-07T10:41:38;16.80;93.10
1700;DHT22;847;48.058;7.810;2023-08-07T10:44:17;16.90;95.20
1700;DHT22;847;48.058;7.810;2023-08-07T10:46:48;17.00;94.40
1700;DHT22;847;48.058;7.810;2023-08-07T10:49:30;17.10;94.60
1700;DHT22;847;48.058;7.810;2023-08-07T10:51:58;17.10;91.40
1700;DHT22;847;48.058;7.810;2023-08-07T10:54:25;17.10;92.70
1700;DHT22;847;48.058;7.810;2023-08-07T10:56:53;17.20;91.70
1700;DHT22;847;48.058;7.810;2023-08-07T10:59:22;17.20;90.40
1700;DHT22;847;48.058;7.810;2023-08-07T11:01:53;17.20;88.90
1700;DHT22;847;48.058;7.810;2023-08-07T11:04:22;17.20;91.40
1700;DHT22;847;48.058;7.810;2023-08-07T11:06:51;17.30;90.90
1700;DHT22;847;48.058;7.810;2023-08-07T11:09:18;17.30;90.30
1700;DHT22;847;48.058;7.810;2023-08-07T11:11:46;17.40;88.90
1700;DHT22;847;48.058;7.810;2023-08-07T11:14:15;17.50;90.90
1700;DHT22;847;48.058;7.810;2023-08-07T11:16:44;17.60;86.80
1700;DHT22;847;48.058;7.810;2023-08-07T11:19:12;17.60;87.50
1700;DHT22;847;48.058;7.810;2023-08-07T11:21:40;17.80;86.80
1700;DHT22;847;48.058;7.810;2023-08-07T11:24:08;17.90;86.40
1700;DHT22;847;48.058;7.810;2023-08-07T11:26:34;18.00;84.30
1700;DHT22;847;48.058;7.810;2023-08-07T11:29:01;17.90;86.80
1700;DHT22;847;48.058;7.810;2023-08-07T11:31:28;17.90;87.30
1700;DHT22;847;48.058;7.810;2023-08-07T11:33:57;17.90;86.80
1700;DHT22;847;48.058;7.810;2023-08-07T11:36:25;17.90;88.00
1700;DHT22;847;48.058;7.810;2023-08-07T11:38:52;17.80;85.40
1700;DHT22;847;48.058;7.810;2023-08-07T11:41:19;17.70;85.00
1700;DHT22;847;48.058;7.810;2023-08-07T11:43:46;17.70;86.90
1700;DHT22;847;48.058;7.810;2023-08-07T11:46:14;17.70;85.40
1700;DHT22;847;48.058;7.810;2023-08-07T11:48:42;17.60;85.10
1700;DHT22;847;48.058;7.810;2023-08-07T11:51:10;17.70;85.00
1700;DHT22;847;48.058;7.810;2023-08-07T11:53:39;17.80;85.60
1700;DHT22;847;48.058;7.810;2023-08-07T11:56:08;17.80;86.80
1700;DHT22;847;48.058;7.810;2023-08-07T11:58:37;17.90;88.00
1700;DHT22;847;48.058;7.810;2023-08-07T12:01:04;17.90;85.60
1700;DHT22;847;48.058;7.810;2023-08-07T12:03:32;18.00;84.90
1700;DHT22;847;48.058;7.810;2023-08-07T12:06:03;18.10;86.40
1700;DHT22;847;48.058;7.810;2023-08-07T12:08:35;18.10;83.90
1700;DHT22;847;48.058;7.810;2023-08-07T12:11:03;18.20;83.70
1700;DHT22;847;48.058;7.810;2023-08-07T12:13:31;18.10;79.80
1700;DHT22;847;48.058;7.810;2023-08-07T12:16:00;18.10;80.20
1700;DHT22;847;48.058;7.810;2023-08-07T12:18:27;18.10;81.40
1700;DHT22;847;48.058;7.810;2023-08-07T12:20:58;18.20;82.20
1700;DHT22;847;48.058;7.810;2023-08-07T12:23:26;18.30;80.70
1700;DHT22;847;48.058;7.810;2023-08-07T12:25:54;18.50;83.60
1700;DHT22;847;48.058;7.810;2023-08-07T12:28:21;18.70;80.80
1700;DHT22;847;48.058;7.810;2023-08-07T12:30:48;18.80;81.90
1700;DHT22;847;48.058;7.810;2023-08-07T12:33:17;18.80;80.10
1700;DHT22;847;48.058;7.810;2023-08-07T12:35:44;18.80;80.20
1700;DHT22;847;48.058;7.810;2023-08-07T12:38:10;18.70;81.60
1700;DHT22;847;48.058;7.810;2023-08-07T12:40:39;18.80;80.90
1700;DHT22;847;48.058;7.810;2023-08-07T12:43:08;18.80;80.50
1700;DHT22;847;48.058;7.810;2023-08-07T12:45:34;18.80;81.80
1700;DHT22;847;48.058;7.810;2023-08-07T12:48:01;19.10;81.20
1700;DHT22;847;48.058;7.810;2023-08-07T12:50:29;19.20;82.90
1700;DHT22;847;48.058;7.810;2023-08-07T12:52:56;19.30;82.50
1700;DHT22;847;48.058;7.810;2023-08-07T12:55:24;19.40;80.00
1700;DHT22;847;48.058;7.810;2023-08-07T12:57:52;19.30;76.80
1700;DHT22;847;48.058;7.810;2023-08-07T13:00:20;19.30;76.60
1700;DHT22;847;48.058;7.810;2023-08-07T13:02:48;19.30;78.70
1700;DHT22;847;48.058;7.810;2023-08-07T13:05:16;19.40;77.50
1700;DHT22;847;48.058;7.810;2023-08-07T13:07:44;19.40;75.80
1700;DHT22;847;48.058;7.810;2023-08-07T13:10:12;19.40;76.80
1700;DHT22;847;48.058;7.810;2023-08-07T13:12:41;19.40;78.50
1700;DHT22;847;48.058;7.810;2023-08-07T13:15:10;19.40;77.10
1700;DHT22;847;48.058;7.810;2023-08-07T13:17:40;19.60;75.80
1700;DHT22;847;48.058;7.810;2023-08-07T13:20:08;19.70;74.50
1700;DHT22;847;48.058;7.810;2023-08-07T13:22:35;19.80;76.30
1700;DHT22;847;48.058;7.810;2023-08-07T13:25:03;19.90;76.90
1700;DHT22;847;48.058;7.810;2023-08-07T13:27:30;20.00;74.90
1700;DHT22;847;48.058;7.810;2023-08-07T13:29:56;20.00;76.40
1700;DHT22;847;48.058;7.810;2023-08-07T13:32:25;20.10;76.00
1700;DHT22;847;48.058;7.810;2023-08-07T13:34:53;20.10;77.00
1700;DHT22;847;48.058;7.810;2023-08-07T13:37:20;20.20;75.40
1700;DHT22;847;48.058;7.810;2023-08-07T13:39:47;20.20;76.80
1700;DHT22;847;48.058;7.810;2023-08-07T13:42:14;20.30;75.00
1700;DHT22;847;48.058;7.810;2023-08-07T13:44:41;20.40;74.60
1700;DHT22;847;48.058;7.810;2023-08-07T13:47:09;20.60;74.40
1700;DHT22;847;48.058;7.810;2023-08-07T13:49:37;20.50;70.70
1700;DHT22;847;48.058;7.810;2023-08-07T13:52:06;20.40;74.20
1700;DHT22;847;48.058;7.810;2023-08-07T13:54:32;20.50;72.50
1700;DHT22;847;48.058;7.810;2023-08-07T13:56:59;20.40;73.00
1700;DHT22;847;48.058;7.810;2023-08-07T13:59:26;20.20;72.40
1700;DHT22;847;48.058;7.810;2023-08-07T14:01:53;20.20;75.70
1700;DHT22;847;48.058;7.810;2023-08-07T14:04:21;20.20;74.10
1700;DHT22;847;48.058;7.810;2023-08-07T14:06:48;19.90;72.90
1700;DHT22;847;48.058;7.810;2023-08-07T14:09:16;19.80;73.40
1700;DHT22;847;48.058;7.810;2023-08-07T14:11:44;19.80;75.00
1700;DHT22;847;48.058;7.810;2023-08-07T14:14:10;19.80;77.10
1700;DHT22;847;48.058;7.810;2023-08-07T14:16:37;20.00;77.20
1700;DHT22;847;48.058;7.810;2023-08-07T14:19:04;20.00;75.30
1700;DHT22;847;48.058;7.810;2023-08-07T14:21:31;20.00;74.50
1700;DHT22;847;48.058;7.810;2023-08-07T14:23:57;20.00;75.60
1700;DHT22;847;48.058;7.810;2023-08-07T14:26:26;20.10;77.20
1700;DHT22;847;48.058;7.810;2023-08-07T14:28:52;20.10;77.00
1700;DHT22;847;48.058;7.810;2023-08-07T14:31:19;20.20;77.20
1700;DHT22;847;48.058;7.810;2023-08-07T14:33:46;20.40;78.00
1700;DHT22;847;48.058;7.810;2023-08-07T14:36:12;20.40;76.70
1700;DHT22;847;48.058;7.810;2023-08-07T14:38:40;20.20;74.60
1700;DHT22;847;48.058;7.810;2023-08-07T14:41:07;20.20;75.70
1700;DHT22;847;48.058;7.810;2023-08-07T14:43:35;20.20;76.80
1700;DHT22;847;48.058;7.810;2023-08-07T14:46:02;20.20;77.40
1700;DHT22;847;48.058;7.810;2023-08-07T14:48:28;20.20;75.40
1700;DHT22;847;48.058;7.810;2023-08-07T14:50:55;20.20;76.50
1700;DHT22;847;48.058;7.810;2023-08-07T14:53:23;20.30;76.30
1700;DHT22;847;48.058;7.810;2023-08-07T14:55:50;20.30;75.60
1700;DHT22;847;48.058;7.810;2023-08-07T14:58:17;20.40;76.10
1700;DHT22;847;48.058;7.810;2023-08-07T15:00:46;20.40;73.20
1700;DHT22;847;48.058;7.810;2023-08-07T15:03:12;20.30;74.90
1700;DHT22;847;48.058;7.810;2023-08-07T15:05:39;20.30;74.20
1700;DHT22;847;48.058;7.810;2023-08-07T15:08:06;20.30;74.90
1700;DHT22;847;48.058;7.810;2023-08-07T15:10:33;20.20;75.00
1700;DHT22;847;48.058;7.810;2023-08-07T15:13:00;20.20;74.80
1700;DHT22;847;48.058;7.810;2023-08-07T15:15:27;20.10;74.00
1700;DHT22;847;48.058;7.810;2023-08-07T15:17:55;20.00;76.00
1700;DHT22;847;48.058;7.810;2023-08-07T15:20:22;20.00;76.20
1700;DHT22;847;48.058;7.810;2023-08-07T15:22:49;20.00;75.90
1700;DHT22;847;48.058;7.810;2023-08-07T15:25:16;20.10;76.00
1700;DHT22;847;48.058;7.810;2023-08-07T15:27:43;20.20;76.80
1700;DHT22;847;48.058;7.810;2023-08-07T15:30:11;20.20;76.70
1700;DHT22;847;48.058;7.810;2023-08-07T15:32:37;20.20;76.90
1700;DHT22;847;48.058;7.810;2023-08-07T15:35:08;20.10;76.30
1700;DHT22;847;48.058;7.810;2023-08-07T15:37:36;20.10;77.40
1700;DHT22;847;48.058;7.810;2023-08-07T15:40:03;20.00;77.30
1700;DHT22;847;48.058;7.810;2023-08-07T15:42:30;20.00;77.80
1700;DHT22;847;48.058;7.810;2023-08-07T15:44:56;20.20;78.10
1700;DHT22;847;48.058;7.810;2023-08-07T15:47:23;20.40;76.40
1700;DHT22;847;48.058;7.810;2023-08-07T15:49:50;20.40;77.50
1700;DHT22;847;48.058;7.810;2023-08-07T15:52:18;20.30;77.10
1700;DHT22;847;48.058;7.810;2023-08-07T15:54:45;20.20;77.80
1700;DHT22;847;48.058;7.810;2023-08-07T15:57:12;20.10;78.20
1700;DHT22;847;48.058;7.810;2023-08-07T15:59:39;20.00;77.60
1700;DHT22;847;48.058;7.810;2023-08-07T16:02:06;19.90;77.90
1700;DHT22;847;48.058;7.810;2023-08-07T16:04:33;19.80;78.20
1700;DHT22;847;48.058;7.810;2023-08-07T16:07:00;19.80;79.70
1700;DHT22;847;48.058;7.810;2023-08-07T16:09:28;19.80;79.80
1700;DHT22;847;48.058;7.810;2023-08-07T16:11:55;19.80;80.60
1700;DHT22;847;48.058;7.810;2023-08-07T16:14:22;19.70;80.10
1700;DHT22;847;48.058;7.810;2023-08-07T16:16:50;19.80;79.60
1700;DHT22;847;48.058;7.810;2023-08-07T16:19:17;20.00;80.30